createdAt,value
2023-02-14T00:01:42.198Z,81.41
2023-02-14T00:04:11.667Z,82.07
2023-02-14T00:06:40.060Z,81.15
2023-02-14T00:09:11.687Z,81.02
2023-02-14T00:11:40.135Z,81.56
2023-02-14T00:14:26.186Z,82.07
2023-02-14T00:16:54.497Z,81.41
2023-02-14T00:19:24.840Z,81.03
2023-02-14T00:21:53.113Z,81.53
2023-02-14T00:24:24.411Z,82.17
2023-02-14T00:26:53.911Z,81.50
2023-02-14T00:29:26.834Z,81.72
2023-02-14T00:31:55.256Z,81.56
2023-02-14T00:34:25.204Z,81.75
2023-02-14T00:36:53.674Z,81.93
2023-02-14T00:39:22.388Z,81.88
2023-02-14T00:41:50.534Z,81.98
2023-02-14T00:44:18.945Z,82.38
2023-02-14T00:46:47.233Z,82.31
2023-02-14T00:49:15.672Z,81.50
2023-02-14T00:51:45.171Z,81.88
2023-02-14T00:54:13.381Z,82.63
2023-02-14T00:56:41.554Z,81.53
2023-02-14T00:59:09.662Z,80.45
2023-02-14T01:01:37.804Z,80.74
2023-02-14T01:04:07.601Z,80.78
2023-02-14T01:06:35.832Z,82.21
2023-02-14T01:09:06.140Z,82.69
2023-02-14T01:11:34.378Z,83.26
2023-02-14T01:14:02.679Z,83.88
2023-02-14T01:16:31.553Z,82.35
2023-02-14T01:19:01.279Z,82.12
2023-02-14T01:21:32.233Z,82.92
2023-02-14T01:24:05.546Z,83.27
2023-02-14T01:26:34.906Z,83.29
2023-02-14T01:29:04.223Z,83.54
2023-02-14T01:31:35.276Z,84.05
2023-02-14T01:34:04.283Z,84.11
2023-02-14T01:36:36.363Z,83.83
2023-02-14T01:39:09.193Z,83.58
2023-02-14T01:41:39.594Z,83.06
2023-02-14T01:44:47.535Z,83.29
2023-02-14T01:47:17.700Z,83.36
2023-02-14T01:49:52.968Z,83.10
2023-02-14T01:52:25.904Z,83.34
2023-02-14T01:55:00.679Z,83.09
2023-02-14T01:57:37.418Z,83.68
2023-02-14T02:00:26.204Z,83.66
2023-02-14T02:02:56.247Z,83.30
2023-02-14T02:05:25.152Z,82.50
2023-02-14T02:07:56.179Z,82.83
2023-02-14T02:10:26.014Z,82.49
2023-02-14T02:12:55.003Z,82.70
2023-02-14T02:15:27.991Z,83.29
2023-02-14T02:18:10.499Z,83.69
2023-02-14T02:21:42.455Z,83.35
2023-02-14T02:24:33.295Z,82.60
2023-02-14T02:27:48.262Z,82.49
2023-02-14T02:30:56.858Z,82.47
2023-02-14T02:34:21.658Z,83.25
2023-02-14T02:37:14.438Z,83.74
2023-02-14T02:39:59.846Z,84.01
2023-02-14T02:42:41.563Z,83.31
2023-02-14T02:45:25.530Z,83.28
2023-02-14T02:48:06.204Z,83.93
2023-02-14T02:51:00.214Z,84.03
2023-02-14T02:53:41.951Z,83.52
2023-02-14T02:56:34.774Z,82.88
2023-02-14T02:59:18.121Z,82.72
2023-02-14T03:01:53.335Z,82.88
2023-02-14T03:04:41.559Z,83.31
2023-02-14T03:07:23.647Z,83.18
2023-02-14T03:09:57.816Z,82.97
2023-02-14T03:13:12.969Z,83.01
2023-02-14T03:16:24.129Z,83.52
2023-02-14T03:19:29.988Z,83.95
2023-02-14T03:22:09.461Z,84.12
2023-02-14T03:24:54.202Z,84.11
2023-02-14T03:27:29.713Z,84.19
2023-02-14T03:30:09.938Z,84.15
2023-02-14T03:32:47.744Z,83.60
2023-02-14T03:35:25.044Z,83.00
2023-02-14T03:38:04.806Z,82.30
2023-02-14T03:40:41.533Z,82.99
2023-02-14T03:43:17.324Z,83.57
2023-02-14T03:45:53.743Z,83.71
2023-02-14T03:48:27.699Z,82.61
2023-02-14T03:50:58.626Z,82.33
2023-02-14T03:53:31.613Z,81.76
2023-02-14T03:56:10.270Z,81.98
2023-02-14T03:58:44.603Z,82.04
2023-02-14T04:01:22.031Z,82.76
2023-02-14T04:03:52.851Z,82.92
2023-02-14T04:06:22.049Z,83.05
2023-02-14T04:08:50.198Z,82.83
2023-02-14T04:11:18.630Z,82.83
2023-02-14T04:13:48.125Z,82.85
2023-02-14T04:16:16.296Z,82.19
2023-02-14T04:19:01.947Z,81.89
2023-02-14T04:21:30.103Z,81.82
2023-02-14T04:23:58.229Z,82.06
2023-02-14T04:26:26.366Z,81.61
2023-02-14T04:28:55.862Z,81.78
2023-02-14T04:31:24.098Z,82.17
2023-02-14T04:33:52.832Z,82.14
2023-02-14T04:36:20.953Z,81.81
2023-02-14T04:38:49.294Z,81.78
2023-02-14T04:41:17.404Z,82.24
2023-02-14T04:43:45.497Z,81.21
2023-02-14T04:46:15.040Z,80.97
2023-02-14T04:48:43.285Z,81.60
2023-02-14T04:51:11.438Z,81.29
2023-02-14T04:53:40.359Z,81.24
2023-02-14T04:56:09.353Z,81.03
2023-02-14T04:58:37.641Z,80.62
2023-02-14T05:01:05.811Z,80.87
2023-02-14T05:03:35.334Z,81.17
2023-02-14T05:06:03.459Z,80.06
2023-02-14T05:08:31.674Z,80.18
2023-02-14T05:11:00.034Z,79.99
2023-02-14T05:13:28.507Z,79.65
2023-02-14T05:15:57.044Z,79.75
2023-02-14T05:18:27.409Z,78.82
2023-02-14T05:20:57.536Z,78.69
2023-02-14T05:23:25.963Z,80.14
2023-02-14T05:25:54.088Z,80.71
2023-02-14T05:28:22.235Z,81.00
2023-02-14T05:30:52.423Z,80.55
2023-02-14T05:33:20.602Z,80.44
2023-02-14T05:35:48.749Z,80.63
2023-02-14T05:38:18.750Z,79.72
2023-02-14T05:40:47.310Z,79.92
2023-02-14T05:43:15.480Z,80.82
2023-02-14T05:45:43.655Z,80.52
2023-02-14T05:48:11.802Z,80.18
2023-02-14T05:50:40.110Z,80.76
2023-02-14T05:53:08.698Z,80.04
2023-02-14T05:55:38.339Z,79.25
2023-02-14T05:58:06.636Z,78.71
2023-02-14T06:00:38.093Z,78.62
2023-02-14T06:03:07.520Z,79.68
2023-02-14T06:05:35.606Z,78.78
2023-02-14T06:08:03.842Z,79.17
2023-02-14T06:10:32.468Z,79.65
2023-02-14T06:13:02.097Z,79.72
2023-02-14T06:15:30.189Z,79.57
2023-02-14T06:17:59.152Z,78.74
2023-02-14T06:20:27.580Z,78.75
2023-02-14T06:22:56.407Z,78.44
2023-02-14T06:25:26.021Z,79.23
2023-02-14T06:27:58.027Z,79.18
2023-02-14T06:30:28.679Z,78.79
2023-02-14T06:32:57.052Z,79.29
2023-02-14T06:35:25.171Z,79.77
2023-02-14T06:37:53.288Z,79.80
2023-02-14T06:40:21.984Z,79.19
2023-02-14T06:42:50.094Z,79.79
2023-02-14T06:45:18.445Z,79.95
2023-02-14T06:47:47.979Z,80.21
2023-02-14T06:50:16.119Z,80.13
2023-02-14T06:52:44.481Z,80.48
2023-02-14T06:55:13.826Z,80.46
2023-02-14T06:57:41.990Z,80.24
2023-02-14T07:00:14.738Z,79.82
2023-02-14T07:02:43.304Z,79.52
2023-02-14T07:05:12.933Z,79.68
2023-02-14T07:07:41.038Z,79.68
2023-02-14T07:10:09.990Z,78.66
2023-02-14T07:12:39.501Z,78.36
2023-02-14T07:15:08.903Z,78.03
2023-02-14T07:17:37.162Z,78.71
2023-02-14T07:20:07.741Z,78.39
2023-02-14T07:22:38.564Z,78.42
2023-02-14T07:25:08.934Z,77.53
2023-02-14T07:27:37.173Z,77.55
2023-02-14T07:30:07.025Z,78.03
2023-02-14T07:32:36.075Z,77.31
2023-02-14T07:35:04.195Z,76.60
2023-02-14T07:37:33.891Z,76.30
2023-02-14T07:40:03.690Z,76.69
2023-02-14T07:42:31.864Z,76.74
2023-02-14T07:45:03.150Z,77.25
2023-02-14T07:47:35.089Z,77.26
2023-02-14T07:50:03.213Z,77.04
2023-02-14T07:52:31.350Z,77.27
2023-02-14T07:54:59.468Z,76.94
2023-02-14T07:57:28.933Z,75.05
2023-02-14T07:59:57.023Z,75.08
2023-02-14T08:02:25.148Z,73.80
2023-02-14T08:04:53.301Z,74.47
2023-02-14T08:07:21.444Z,74.89
2023-02-14T08:09:49.542Z,74.74
2023-02-14T08:12:35.078Z,73.83
2023-02-14T08:15:18.819Z,73.94
2023-02-14T08:17:46.922Z,73.02
2023-02-14T08:20:15.029Z,73.68
2023-02-14T08:22:43.156Z,73.31
2023-02-14T08:25:11.394Z,73.22
2023-02-14T08:27:39.533Z,71.57
2023-02-14T08:30:10.536Z,70.83
2023-02-14T08:32:38.786Z,71.61
2023-02-14T08:35:07.990Z,70.81
2023-02-14T08:37:36.084Z,71.74
2023-02-14T08:40:04.313Z,71.43
2023-02-14T08:42:33.566Z,71.28
2023-02-14T08:45:01.717Z,71.83
2023-02-14T08:47:35.585Z,71.78
2023-02-14T08:50:03.912Z,71.33
2023-02-14T08:52:32.059Z,68.99
2023-02-14T08:55:00.441Z,69.21
2023-02-14T08:57:28.671Z,70.57
2023-02-14T08:59:56.833Z,70.26
2023-02-14T09:02:24.984Z,70.73
2023-02-14T09:04:54.459Z,70.46
2023-02-14T09:07:23.486Z,70.87
2023-02-14T09:09:51.617Z,70.32
2023-02-14T09:12:19.909Z,68.99
2023-02-14T09:14:48.053Z,68.78
2023-02-14T09:17:17.363Z,68.07
2023-02-14T09:19:45.571Z,68.19
2023-02-14T09:22:15.091Z,68.64
2023-02-14T09:24:43.239Z,68.80
2023-02-14T09:27:11.312Z,68.54
2023-02-14T09:29:39.487Z,68.09
2023-02-14T09:32:07.665Z,67.68
2023-02-14T09:34:36.846Z,67.51
2023-02-14T09:37:22.382Z,66.02
2023-02-14T09:39:51.893Z,65.80
2023-02-14T09:42:54.284Z,66.21
2023-02-14T09:45:26.674Z,66.58
2023-02-14T09:48:03.764Z,66.61
2023-02-14T09:50:40.384Z,66.66
2023-02-14T09:53:23.658Z,66.35
2023-02-14T09:56:03.542Z,65.67
2023-02-14T09:58:37.827Z,65.97
2023-02-14T10:01:17.022Z,65.18
2023-02-14T10:04:22.162Z,65.23
2023-02-14T10:06:57.617Z,64.88
2023-02-14T10:09:54.270Z,64.83
2023-02-14T10:12:32.492Z,64.40
2023-02-14T10:15:21.017Z,63.64
2023-02-14T10:17:56.549Z,63.86
2023-02-14T10:20:33.189Z,64.90
2023-02-14T10:23:13.177Z,64.68
2023-02-14T10:25:50.961Z,63.77
2023-02-14T10:28:32.552Z,63.99
2023-02-14T10:31:21.155Z,64.30
2023-02-14T10:33:57.861Z,64.35
2023-02-14T10:36:48.152Z,63.26
2023-02-14T10:39:45.820Z,63.10
2023-02-14T10:42:30.739Z,62.95
2023-02-14T10:45:18.105Z,63.26
2023-02-14T10:47:58.414Z,63.07
2023-02-14T10:50:37.533Z,63.28
2023-02-14T10:53:20.462Z,63.47
2023-02-14T10:55:56.895Z,62.62
2023-02-14T10:58:29.135Z,62.50
2023-02-14T11:01:06.364Z,62.38
2023-02-14T11:03:38.014Z,63.23
2023-02-14T11:06:06.627Z,63.73
2023-02-14T11:08:37.686Z,63.38
2023-02-14T11:11:17.664Z,63.90
2023-02-14T11:13:46.652Z,64.32
2023-02-14T11:16:31.126Z,64.34
2023-02-14T11:19:19.903Z,64.01
2023-02-14T11:21:50.658Z,63.71
2023-02-14T11:24:25.932Z,63.85
2023-02-14T11:26:58.821Z,63.84
2023-02-14T11:29:31.349Z,63.65
2023-02-14T11:32:11.485Z,64.29
2023-02-14T11:34:42.925Z,63.42
2023-02-14T11:37:28.052Z,63.36
2023-02-14T11:39:59.443Z,62.62
2023-02-14T11:42:41.430Z,62.57
2023-02-14T11:45:31.425Z,62.71
2023-02-14T11:48:31.502Z,62.34
2023-02-14T11:51:09.756Z,61.77
2023-02-14T11:53:46.750Z,62.21
2023-02-14T11:56:16.357Z,62.56
2023-02-14T11:58:52.909Z,62.58
2023-02-14T12:01:27.412Z,62.42
2023-02-14T12:04:02.327Z,62.71
2023-02-14T12:06:34.324Z,62.22
2023-02-14T12:09:14.688Z,61.92
2023-02-14T12:11:56.422Z,62.18
2023-02-14T12:14:29.314Z,62.00
2023-02-14T12:17:05.676Z,61.44
2023-02-14T12:19:46.031Z,61.69
2023-02-14T12:22:21.659Z,62.33
2023-02-14T12:25:03.609Z,62.09
2023-02-14T12:27:45.039Z,62.43
2023-02-14T12:30:18.211Z,61.51
2023-02-14T12:32:51.308Z,61.47
2023-02-14T12:35:36.450Z,61.62
2023-02-14T12:38:18.331Z,62.02
2023-02-14T12:41:08.216Z,62.23
2023-02-14T12:43:50.580Z,62.22
2023-02-14T12:46:49.724Z,62.13
2023-02-14T12:50:03.664Z,61.79
2023-02-14T12:52:57.147Z,61.97
2023-02-14T12:55:43.942Z,61.45
2023-02-14T12:58:33.406Z,60.47
2023-02-14T13:01:38.345Z,57.74
2023-02-14T13:04:55.671Z,54.24
2023-02-14T13:07:51.871Z,53.35
2023-02-14T13:10:37.084Z,53.91
2023-02-14T13:13:11.751Z,55.11
2023-02-14T13:15:45.294Z,56.57
2023-02-14T13:18:27.277Z,57.82
2023-02-14T13:21:00.090Z,59.15
2023-02-14T13:23:35.980Z,59.64
2023-02-14T13:26:10.826Z,60.41
2023-02-14T13:28:44.222Z,60.94
2023-02-14T13:31:15.045Z,61.01
2023-02-14T13:33:49.336Z,60.79
2023-02-14T13:36:18.359Z,61.76
2023-02-14T13:38:52.375Z,62.08
2023-02-14T13:41:23.155Z,61.95
2023-02-14T13:43:54.892Z,62.14
2023-02-14T13:46:39.443Z,62.51
2023-02-14T13:49:22.167Z,63.04
2023-02-14T13:51:53.382Z,62.71
2023-02-14T13:54:30.097Z,63.03
2023-02-14T13:57:00.255Z,63.70
2023-02-14T13:59:32.264Z,63.43
2023-02-14T14:02:44.705Z,63.64
2023-02-14T14:06:08.890Z,64.20
2023-02-14T14:08:47.698Z,64.10
2023-02-14T14:11:51.425Z,64.38
2023-02-14T14:14:43.573Z,65.01
2023-02-14T14:17:25.941Z,64.62
2023-02-14T14:19:54.906Z,64.86
2023-02-14T14:22:24.629Z,64.87
2023-02-14T14:25:00.139Z,64.82
2023-02-14T14:27:35.410Z,65.75
2023-02-14T14:30:07.459Z,65.60
2023-02-14T14:32:38.184Z,65.66
2023-02-14T14:35:18.764Z,66.17
2023-02-14T14:37:50.470Z,64.90
2023-02-14T14:40:25.973Z,65.67
2023-02-14T14:42:58.668Z,66.79
2023-02-14T14:45:29.896Z,67.14
2023-02-14T14:48:01.496Z,67.12
2023-02-14T14:50:34.042Z,67.36
2023-02-14T14:53:06.230Z,67.44
2023-02-14T14:55:39.374Z,66.77
2023-02-14T14:58:32.018Z,67.00
2023-02-14T15:01:00.635Z,67.70
2023-02-14T15:03:30.478Z,67.63
2023-02-14T15:06:11.185Z,67.43
2023-02-14T15:08:39.242Z,67.83
2023-02-14T15:11:13.574Z,68.44
2023-02-14T15:13:57.471Z,68.46
2023-02-14T15:16:30.703Z,68.30
2023-02-14T15:19:07.702Z,68.41
2023-02-14T15:21:36.104Z,69.06
2023-02-14T15:24:05.162Z,69.59
2023-02-14T15:26:36.658Z,69.67
2023-02-14T15:29:07.765Z,70.23
2023-02-14T15:31:40.563Z,70.19
2023-02-14T15:34:11.342Z,69.72
2023-02-14T15:36:49.025Z,70.26
2023-02-14T15:39:19.870Z,70.81
2023-02-14T15:41:47.942Z,71.46
2023-02-14T15:44:26.744Z,71.05
2023-02-14T15:46:58.812Z,71.11
2023-02-14T15:49:35.763Z,70.92
2023-02-14T15:52:07.593Z,71.25
2023-02-14T15:54:39.989Z,71.39
2023-02-14T15:57:20.562Z,71.92
2023-02-14T15:59:50.373Z,71.93
2023-02-14T16:02:30.891Z,72.12
2023-02-14T16:05:07.623Z,72.20
2023-02-14T16:07:36.274Z,72.15
2023-02-14T16:10:24.109Z,72.40
2023-02-14T16:12:58.798Z,72.83
2023-02-14T16:15:31.777Z,73.41
2023-02-14T16:18:01.067Z,73.38
2023-02-14T16:20:41.385Z,73.41
2023-02-14T16:23:26.786Z,73.48
2023-02-14T16:25:57.318Z,73.45
2023-02-14T16:28:29.809Z,73.93
2023-02-14T16:31:02.878Z,74.20
2023-02-14T16:33:36.113Z,74.30
2023-02-14T16:36:09.505Z,74.64
2023-02-14T16:38:44.353Z,75.09
2023-02-14T16:41:21.578Z,75.35
2023-02-14T16:43:50.647Z,75.19
2023-02-14T16:46:23.803Z,75.34
2023-02-14T16:48:52.875Z,75.55
2023-02-14T16:51:24.627Z,75.35
2023-02-14T16:53:53.668Z,75.12
2023-02-14T16:56:27.679Z,74.61
2023-02-14T16:58:57.755Z,74.92
2023-02-14T17:01:27.539Z,75.37
2023-02-14T17:03:55.584Z,75.81
2023-02-14T17:06:28.546Z,75.72
2023-02-14T17:08:58.217Z,76.26
2023-02-14T17:11:29.197Z,76.64
2023-02-14T17:13:57.775Z,76.86
2023-02-14T17:16:27.657Z,77.03
2023-02-14T17:18:55.792Z,76.72
2023-02-14T17:21:25.243Z,76.93
2023-02-14T17:23:53.375Z,77.11
2023-02-14T17:26:21.496Z,77.35
2023-02-14T17:28:49.699Z,77.32
2023-02-14T17:31:18.057Z,77.54
2023-02-14T17:33:48.496Z,77.81
2023-02-14T17:36:16.725Z,78.38
2023-02-14T17:38:44.922Z,77.99
2023-02-14T17:41:15.439Z,78.04
2023-02-14T17:43:43.588Z,78.33
2023-02-14T17:46:14.194Z,77.84
2023-02-14T17:48:45.313Z,77.89
2023-02-14T17:51:16.854Z,78.03
2023-02-14T17:53:45.279Z,78.60
2023-02-14T17:56:17.796Z,79.03
2023-02-14T17:58:47.730Z,78.96
2023-02-14T18:01:18.002Z,79.14
2023-02-14T18:03:46.553Z,79.49
2023-02-14T18:06:16.248Z,79.54
2023-02-14T18:08:49.264Z,79.79
2023-02-14T18:11:21.923Z,79.73
2023-02-14T18:13:50.805Z,79.98
2023-02-14T18:16:20.557Z,79.62
2023-02-14T18:18:49.140Z,80.07
2023-02-14T18:21:21.228Z,80.39
2023-02-14T18:23:49.703Z,80.60
2023-02-14T18:26:19.166Z,80.89
2023-02-14T18:28:47.351Z,80.37
2023-02-14T18:31:17.997Z,80.58
2023-02-14T18:33:47.531Z,80.82
2023-02-14T18:36:20.868Z,80.89
2023-02-14T18:38:50.239Z,81.09
2023-02-14T18:41:20.754Z,81.05
2023-02-14T18:43:49.940Z,80.88
2023-02-14T18:46:21.484Z,81.27
2023-02-14T18:48:50.136Z,81.52
2023-02-14T18:51:22.519Z,81.22
2023-02-14T18:53:52.441Z,81.53
2023-02-14T18:56:23.583Z,81.83
2023-02-14T18:58:56.442Z,81.98
2023-02-14T19:01:29.207Z,82.07
2023-02-14T19:04:00.570Z,81.88
2023-02-14T19:06:32.313Z,82.05
2023-02-14T19:09:01.351Z,82.38
2023-02-14T19:11:32.708Z,82.75
2023-02-14T19:14:08.292Z,82.62
2023-02-14T19:16:38.317Z,82.82
2023-02-14T19:19:06.929Z,82.83
2023-02-14T19:21:36.755Z,83.08
2023-02-14T19:24:08.173Z,82.93
2023-02-14T19:26:40.400Z,83.16
2023-02-14T19:29:11.568Z,83.19
2023-02-14T19:31:42.926Z,83.38
2023-02-14T19:34:19.424Z,83.56
2023-02-14T19:36:50.460Z,83.47
2023-02-14T19:39:19.373Z,83.90
2023-02-14T19:41:48.868Z,83.57
2023-02-14T19:44:18.392Z,83.58
2023-02-14T19:46:47.741Z,83.66
2023-02-14T19:49:18.176Z,83.49
2023-02-14T19:51:51.015Z,83.87
2023-02-14T19:54:21.785Z,84.01
2023-02-14T19:56:49.862Z,84.16
2023-02-14T19:59:21.693Z,84.38
2023-02-14T20:01:52.020Z,84.21
2023-02-14T20:04:23.991Z,84.43
2023-02-14T20:06:55.228Z,84.36
2023-02-14T20:09:25.453Z,84.08
2023-02-14T20:11:55.828Z,84.68
2023-02-14T20:14:26.246Z,84.97
2023-02-14T20:16:56.975Z,84.97
2023-02-14T20:19:27.961Z,85.33
2023-02-14T20:21:57.625Z,85.45
2023-02-14T20:24:28.849Z,85.05
2023-02-14T20:26:57.699Z,84.61
2023-02-14T20:29:26.973Z,84.59
2023-02-14T20:31:59.633Z,84.95
2023-02-14T20:34:28.459Z,84.70
2023-02-14T20:36:59.208Z,85.08
2023-02-14T20:39:31.258Z,85.01
2023-02-14T20:41:59.690Z,85.08
2023-02-14T20:44:28.429Z,85.10
2023-02-14T20:46:57.975Z,85.21
2023-02-14T20:49:28.398Z,85.05
2023-02-14T20:51:58.847Z,84.80
2023-02-14T20:54:29.609Z,84.83
2023-02-14T20:56:58.854Z,84.74
2023-02-14T20:59:28.597Z,84.89
2023-02-14T21:01:59.462Z,85.01
2023-02-14T21:04:28.359Z,85.29
2023-02-14T21:07:00.155Z,85.21
2023-02-14T21:09:28.325Z,85.44
2023-02-14T21:11:57.981Z,85.70
2023-02-14T21:14:26.176Z,85.77
2023-02-14T21:16:54.321Z,85.70
2023-02-14T21:19:22.444Z,85.63
2023-02-14T21:21:50.572Z,84.59
2023-02-14T21:24:20.103Z,84.20
2023-02-14T21:26:48.243Z,84.25
2023-02-14T21:29:16.516Z,84.58
2023-02-14T21:31:44.832Z,84.93
2023-02-14T21:34:15.831Z,85.61
2023-02-14T21:36:43.997Z,85.69
2023-02-14T21:39:12.087Z,85.98
2023-02-14T21:41:41.626Z,86.01
2023-02-14T21:44:10.379Z,85.95
2023-02-14T21:46:41.005Z,86.60
2023-02-14T21:49:26.679Z,86.52
2023-02-14T21:51:54.831Z,86.39
2023-02-14T21:54:23.016Z,86.42
2023-02-14T21:56:52.515Z,86.60
2023-02-14T21:59:20.640Z,86.83
2023-02-14T22:01:48.743Z,86.85
2023-02-14T22:04:16.859Z,86.87
2023-02-14T22:06:45.076Z,87.21
2023-02-14T22:09:17.366Z,87.40
2023-02-14T22:11:47.461Z,87.37
2023-02-14T22:14:17.235Z,87.37
2023-02-14T22:16:45.392Z,87.55
2023-02-14T22:19:16.506Z,87.66
2023-02-14T22:21:45.233Z,87.39
2023-02-14T22:24:13.906Z,87.26
2023-02-14T22:26:43.231Z,86.79
2023-02-14T22:29:13.955Z,87.03
2023-02-14T22:31:44.872Z,87.18
2023-02-14T22:34:17.641Z,87.28
2023-02-14T22:36:45.940Z,87.63
2023-02-14T22:39:16.800Z,87.85
2023-02-14T22:41:46.530Z,87.79
2023-02-14T22:44:15.321Z,87.84
2023-02-14T22:46:44.853Z,87.81
2023-02-14T22:49:13.016Z,87.56
2023-02-14T22:51:43.388Z,87.25
2023-02-14T22:54:14.114Z,87.20
2023-02-14T22:56:45.529Z,87.35
2023-02-14T22:59:18.401Z,87.34
2023-02-14T23:01:48.971Z,87.23
2023-02-14T23:04:19.256Z,87.33
2023-02-14T23:06:47.407Z,87.17
2023-02-14T23:09:16.537Z,87.21
2023-02-14T23:11:47.204Z,87.49
2023-02-14T23:14:38.521Z,87.30
2023-02-14T23:17:25.939Z,87.39
2023-02-14T23:20:11.646Z,87.37
2023-02-14T23:22:41.868Z,87.43
2023-02-14T23:25:13.251Z,87.62
2023-02-14T23:27:44.100Z,87.19
2023-02-14T23:30:16.992Z,87.10
2023-02-14T23:32:46.606Z,86.79
2023-02-14T23:35:15.711Z,87.17
2023-02-14T23:37:43.851Z,87.32
2023-02-14T23:40:12.903Z,87.10
2023-02-14T23:42:41.003Z,87.34
2023-02-14T23:45:27.668Z,87.76
2023-02-14T23:47:57.214Z,87.82
2023-02-14T23:50:25.359Z,87.79
2023-02-14T23:52:53.494Z,87.82
2023-02-14T23:55:21.616Z,87.73
2023-02-14T23:57:49.775Z,87.81
